Time,TemperatureF,DewpointF,PressureIn,WindDirection,WindDirectionDegrees,WindSpeedMPH,WindSpeedGustMPH,Humidity,HourlyPrecipIn,Conditions,Clouds,dailyrainin,SoftwareType,DateUTC
2013-01-25 00:03:00,10.0,5.0,30.53,SSW,211,0.0,3.0,78,0.00,,,0.04,,2013-01-25 05:03:00,
2013-01-25 00:12:00,10.0,4.0,30.51,SW,215,2.0,5.0,77,0.00,,,0.04,,2013-01-25 05:12:00,
2013-01-25 00:22:00,10.0,4.0,30.51,SW,215,2.0,5.0,77,0.00,,,0.04,,2013-01-25 05:22:00,
2013-01-25 00:32:00,9.0,2.0,30.52,SSW,212,2.0,4.0,72,0.00,,,0.04,,2013-01-25 05:32:00,
2013-01-25 00:43:00,9.0,2.0,30.52,SSW,212,2.0,4.0,72,0.00,,,0.04,,2013-01-25 05:43:00,
2013-01-25 00:52:00,9.0,2.0,30.52,SSW,211,3.0,5.0,71,0.00,,,0.04,,2013-01-25 05:52:00,
2013-01-25 01:02:00,9.0,2.0,30.51,SW,214,3.0,6.0,72,0.00,,,0.04,,2013-01-25 06:02:00,
2013-01-25 01:11:00,9.0,2.0,30.51,SW,214,3.0,6.0,72,0.00,,,0.04,,2013-01-25 06:11:00,
2013-01-25 01:21:00,9.0,2.0,30.50,SW,215,3.0,5.0,71,0.00,,,0.04,,2013-01-25 06:21:00,
2013-01-25 01:32:00,9.0,2.0,30.50,SW,217,3.0,6.0,72,0.00,,,0.04,,2013-01-25 06:32:00,
2013-01-25 01:42:00,9.0,2.0,30.50,SW,231,3.0,6.0,72,0.00,,,0.04,,2013-01-25 06:42:00,
2013-01-25 01:52:00,9.0,2.0,30.50,SW,231,3.0,6.0,72,0.00,,,0.04,,2013-01-25 06:52:00,
2013-01-25 02:02:00,10.0,5.0,30.50,SSW,206,3.0,5.0,79,0.00,,,0.04,,2013-01-25 07:02:00,
2013-01-25 02:11:00,11.0,5.0,30.50,South,191,4.0,6.0,77,0.00,,,0.04,,2013-01-25 07:11:00,
2013-01-25 02:21:00,11.0,5.0,30.50,South,191,4.0,6.0,77,0.00,,,0.04,,2013-01-25 07:21:00,
2013-01-25 02:32:00,11.0,5.0,30.50,SW,227,3.0,7.0,77,0.00,,,0.04,,2013-01-25 07:32:00,
2013-01-25 02:42:00,12.0,7.0,30.50,SW,219,4.0,7.0,79,0.00,,,0.04,,2013-01-25 07:42:00,
2013-01-25 02:52:00,12.0,7.0,30.50,SW,219,4.0,7.0,79,0.00,,,0.04,,2013-01-25 07:52:00,
2013-01-25 03:02:00,12.0,7.0,30.50,SW,214,3.0,7.0,80,0.00,,,0.04,,2013-01-25 08:02:00,
2013-01-25 03:11:00,12.0,7.0,30.50,SW,226,4.0,8.0,79,0.00,,,0.04,,2013-01-25 08:11:00,
2013-01-25 03:21:00,12.0,7.0,30.50,SW,226,4.0,8.0,79,0.00,,,0.04,,2013-01-25 08:21:00,
2013-01-25 03:32:00,12.0,6.0,30.48,SW,225,3.0,7.0,78,0.00,,,0.04,,2013-01-25 08:32:00,
2013-01-25 03:41:00,12.0,6.0,30.48,SW,225,3.0,7.0,78,0.00,,,0.04,,2013-01-25 08:41:00,
2013-01-25 03:52:00,11.0,4.0,30.48,SW,224,4.0,7.0,73,0.00,,,0.04,,2013-01-25 08:52:00,
2013-01-25 04:02:00,11.0,4.0,30.47,SSW,213,4.0,6.0,73,0.00,,,0.04,,2013-01-25 09:02:00,
2013-01-25 04:11:00,11.0,4.0,30.47,SW,227,3.0,6.0,73,0.00,,,0.04,,2013-01-25 09:11:00,
2013-01-25 04:21:00,11.0,4.0,30.47,SW,227,3.0,6.0,73,0.00,,,0.04,,2013-01-25 09:21:00,
2013-01-25 04:31:00,11.0,4.0,30.45,SW,221,3.0,6.0,72,0.00,,,0.04,,2013-01-25 09:31:00,
2013-01-25 04:42:00,11.0,4.0,30.45,SW,221,3.0,6.0,72,0.00,,,0.04,,2013-01-25 09:42:00,
2013-01-25 04:52:00,11.0,4.0,30.45,SW,225,4.0,7.0,72,0.00,,,0.04,,2013-01-25 09:52:00,
2013-01-25 05:02:00,12.0,5.0,30.43,SW,217,4.0,6.0,72,0.00,,,0.04,,2013-01-25 10:02:00,
2013-01-25 05:12:00,12.0,5.0,30.43,SW,218,2.0,6.0,72,0.00,,,0.04,,2013-01-25 10:12:00,
2013-01-25 05:21:00,12.0,5.0,30.43,SW,218,2.0,6.0,72,0.00,,,0.04,,2013-01-25 10:21:00,
2013-01-25 05:32:00,12.0,5.0,30.43,SW,225,3.0,5.0,72,0.00,,,0.04,,2013-01-25 10:32:00,
2013-01-25 05:42:00,12.0,5.0,30.43,SW,225,3.0,5.0,72,0.00,,,0.04,,2013-01-25 10:42:00,
2013-01-25 05:52:00,12.0,5.0,30.42,SW,224,3.0,5.0,72,0.00,,,0.04,,2013-01-25 10:52:00,
2013-01-25 06:02:00,13.0,5.0,30.42,SSW,213,3.0,6.0,71,0.00,,,0.04,,2013-01-25 11:02:00,
2013-01-25 06:11:00,13.0,5.0,30.42,SSW,213,3.0,6.0,71,0.00,,,0.04,,2013-01-25 11:11:00,
2013-01-25 06:22:00,13.0,5.0,30.41,SW,219,3.0,5.0,71,0.00,,,0.04,,2013-01-25 11:22:00,
2013-01-25 06:32:00,13.0,5.0,30.41,SSW,213,3.0,6.0,71,0.00,,,0.04,,2013-01-25 11:32:00,
2013-01-25 06:42:00,13.0,5.0,30.41,SSW,213,3.0,6.0,71,0.00,,,0.04,,2013-01-25 11:42:00,
2013-01-25 06:52:00,14.0,8.0,30.40,SW,225,3.0,6.0,76,0.00,,,0.04,,2013-01-25 11:52:00,
2013-01-25 07:02:00,14.0,8.0,30.40,SW,226,3.0,5.0,76,0.00,,,0.04,,2013-01-25 12:02:00,
2013-01-25 07:12:00,14.0,8.0,30.40,SW,226,3.0,5.0,76,0.00,,,0.04,,2013-01-25 12:12:00,
2013-01-25 07:22:00,14.0,8.0,30.39,SSW,213,3.0,5.0,77,0.00,,,0.04,,2013-01-25 12:22:00,
2013-01-25 07:32:00,14.0,8.0,30.38,South,188,2.0,6.0,77,0.00,,,0.04,,2013-01-25 12:32:00,
2013-01-25 07:42:00,14.0,8.0,30.38,South,188,2.0,6.0,77,0.00,,,0.04,,2013-01-25 12:42:00,
2013-01-25 07:53:00,13.0,7.0,30.38,SW,216,2.0,5.0,78,0.00,,,0.04,,2013-01-25 12:53:00,
2013-01-25 08:02:00,14.0,8.0,30.37,SSW,196,3.0,5.0,77,0.00,,,0.04,,2013-01-25 13:02:00,
2013-01-25 08:12:00,14.0,8.0,30.37,SSW,196,3.0,5.0,77,0.00,,,0.04,,2013-01-25 13:12:00,
2013-01-25 08:22:00,14.0,8.0,30.37,SSW,198,3.0,5.0,77,0.00,,,0.04,,2013-01-25 13:22:00,
2013-01-25 08:32:00,14.0,8.0,30.36,SSE,154,3.0,5.0,76,0.00,,,0.04,,2013-01-25 13:32:00,
2013-01-25 08:42:00,14.0,8.0,30.36,SSE,154,3.0,5.0,76,0.00,,,0.04,,2013-01-25 13:42:00,
2013-01-25 08:53:00,14.0,8.0,30.36,South,189,1.0,4.0,76,0.00,,,0.04,,2013-01-25 13:53:00,
2013-01-25 09:03:00,14.0,8.0,30.36,South,186,2.0,6.0,75,0.00,,,0.04,,2013-01-25 14:03:00,
2013-01-25 09:12:00,14.0,8.0,30.36,South,186,2.0,6.0,75,0.00,,,0.04,,2013-01-25 14:12:00,
2013-01-25 09:23:00,15.0,8.0,30.34,South,187,3.0,5.0,74,0.00,,,0.04,,2013-01-25 14:23:00,
2013-01-25 09:33:00,16.0,9.0,30.33,SSW,194,3.0,6.0,73,0.00,,,0.04,,2013-01-25 14:33:00,
2013-01-25 09:42:00,16.0,9.0,30.33,SSW,194,3.0,6.0,73,0.00,,,0.04,,2013-01-25 14:42:00,
2013-01-25 09:53:00,16.0,9.0,30.32,South,169,5.0,7.0,73,0.00,,,0.04,,2013-01-25 14:53:00,
2013-01-25 10:02:00,17.0,9.0,30.32,SSW,208,5.0,7.0,71,0.00,,,0.04,,2013-01-25 15:02:00,
2013-01-25 10:12:00,17.0,9.0,30.32,SSW,208,5.0,7.0,71,0.00,,,0.04,,2013-01-25 15:12:00,
2013-01-25 10:22:00,17.0,10.0,30.32,South,170,4.0,9.0,75,0.00,,,0.04,,2013-01-25 15:22:00,
2013-01-25 10:32:00,17.0,11.0,30.31,SE,134,2.0,7.0,76,0.00,,,0.04,,2013-01-25 15:32:00,
2013-01-25 10:42:00,17.0,11.0,30.31,SE,134,2.0,7.0,76,0.00,,,0.04,,2013-01-25 15:42:00,
2013-01-25 10:53:00,17.0,11.0,30.30,SSW,198,4.0,7.0,76,0.00,,,0.04,,2013-01-25 15:53:00,
2013-01-25 11:03:00,18.0,12.0,30.29,SW,222,5.0,8.0,76,0.00,,,0.04,,2013-01-25 16:03:00,
2013-01-25 11:12:00,18.0,12.0,30.29,SW,222,5.0,8.0,76,0.00,,,0.04,,2013-01-25 16:12:00,
2013-01-25 11:23:00,18.0,12.0,30.29,SSW,194,4.0,6.0,76,0.00,,,0.04,,2013-01-25 16:23:00,
2013-01-25 11:32:00,18.0,11.0,30.28,SE,130,3.0,5.0,74,0.00,,,0.04,,2013-01-25 16:32:00,
2013-01-25 11:43:00,18.0,11.0,30.28,SE,130,3.0,5.0,74,0.00,,,0.04,,2013-01-25 16:43:00,
2013-01-25 11:53:00,18.0,11.0,30.27,SSW,205,4.0,7.0,73,0.00,,,0.04,,2013-01-25 16:53:00,
2013-01-25 12:02:00,19.0,11.0,30.26,South,182,3.0,7.0,72,0.00,,,0.04,,2013-01-25 17:02:00,
2013-01-25 12:12:00,19.0,11.0,30.26,South,182,3.0,7.0,72,0.00,,,0.04,,2013-01-25 17:12:00,
2013-01-25 12:22:00,19.0,12.0,30.25,SSW,195,5.0,7.0,73,0.00,,,0.04,,2013-01-25 17:22:00,
2013-01-25 12:33:00,19.0,11.0,30.24,SSW,195,4.0,7.0,72,0.00,,,0.04,,2013-01-25 17:33:00,
2013-01-25 12:43:00,19.0,11.0,30.24,SSW,195,4.0,7.0,72,0.00,,,0.04,,2013-01-25 17:43:00,
2013-01-25 12:53:00,19.0,11.0,30.23,South,191,4.0,7.0,71,0.00,,,0.04,,2013-01-25 17:53:00,
2013-01-25 13:03:00,19.0,11.0,30.22,SSE,163,2.0,5.0,70,0.00,,,0.04,,2013-01-25 18:03:00,
2013-01-25 13:12:00,19.0,11.0,30.22,SSE,163,2.0,5.0,70,0.00,,,0.04,,2013-01-25 18:12:00,
2013-01-25 13:23:00,19.0,10.0,30.21,South,186,2.0,4.0,68,0.00,,,0.04,,2013-01-25 18:23:00,
2013-01-25 13:33:00,19.0,10.0,30.20,South,175,3.0,5.0,68,0.00,,,0.04,,2013-01-25 18:33:00,
2013-01-25 13:42:00,19.0,10.0,30.20,South,175,3.0,5.0,68,0.00,,,0.04,,2013-01-25 18:42:00,
2013-01-25 13:52:00,19.0,11.0,30.19,South,188,2.0,6.0,69,0.00,,,0.04,,2013-01-25 18:52:00,
2013-01-25 14:03:00,19.0,11.0,30.18,SE,136,0.0,3.0,70,0.00,,,0.04,,2013-01-25 19:03:00,
2013-01-25 14:12:00,19.0,11.0,30.18,SE,136,0.0,3.0,70,0.00,,,0.04,,2013-01-25 19:12:00,
2013-01-25 14:22:00,19.0,11.0,30.16,SSE,167,1.0,5.0,71,0.00,,,0.04,,2013-01-25 19:22:00,
2013-01-25 14:32:00,19.0,12.0,30.16,ESE,103,2.0,4.0,74,0.00,,,0.04,,2013-01-25 19:32:00,
2013-01-25 14:42:00,19.0,12.0,30.16,ESE,103,2.0,4.0,74,0.00,,,0.04,,2013-01-25 19:42:00,
2013-01-25 14:53:00,19.0,13.0,30.15,SSE,149,2.0,5.0,76,0.00,,,0.04,,2013-01-25 19:53:00,
2013-01-25 15:03:00,18.0,12.0,30.14,SE,138,2.0,6.0,78,0.00,,,0.04,,2013-01-25 20:03:00,
2013-01-25 15:12:00,18.0,12.0,30.14,SE,138,2.0,6.0,78,0.00,,,0.04,,2013-01-25 20:12:00,
2013-01-25 15:23:00,18.0,13.0,30.14,SE,130,1.0,5.0,79,0.00,,,0.00,,2013-01-25 20:23:00,
2013-01-25 15:32:00,18.0,13.0,30.14,SE,140,3.0,6.0,79,0.00,,,0.00,,2013-01-25 20:32:00,
2013-01-25 15:42:00,18.0,13.0,30.14,SE,140,3.0,6.0,79,0.00,,,0.00,,2013-01-25 20:42:00,
2013-01-25 15:53:00,18.0,13.0,30.14,SSE,148,1.0,4.0,80,0.00,,,0.00,,2013-01-25 20:53:00,
2013-01-25 16:02:00,18.0,13.0,30.13,SE,146,3.0,5.0,81,0.00,,,0.00,,2013-01-25 21:02:00,
2013-01-25 16:12:00,18.0,13.0,30.13,SE,146,3.0,5.0,81,0.00,,,0.00,,2013-01-25 21:12:00,
2013-01-25 16:23:00,17.0,10.0,30.13,SSE,150,1.0,5.0,74,0.00,,,0.00,,2013-01-25 21:23:00,
2013-01-25 16:33:00,17.0,10.0,30.12,SSE,157,1.0,3.0,74,0.00,,,0.00,,2013-01-25 21:33:00,
2013-01-25 16:42:00,17.0,10.0,30.12,SSE,157,1.0,3.0,74,0.00,,,0.00,,2013-01-25 21:42:00,
2013-01-25 16:52:00,18.0,11.0,30.12,SE,135,2.0,5.0,74,0.00,,,0.00,,2013-01-25 21:52:00,
2013-01-25 17:03:00,17.0,10.0,30.11,SE,130,1.0,3.0,75,0.00,,,0.00,,2013-01-25 22:03:00,
2013-01-25 17:12:00,17.0,10.0,30.11,SE,136,0.0,3.0,75,0.00,,,0.00,,2013-01-25 22:12:00,
2013-01-25 17:22:00,17.0,10.0,30.11,SE,136,0.0,3.0,75,0.00,,,0.00,,2013-01-25 22:22:00,
2013-01-25 17:33:00,16.0,10.0,30.11,ESE,119,0.0,2.0,76,0.00,,,0.00,,2013-01-25 22:33:00,
2013-01-25 17:42:00,16.0,10.0,30.11,ESE,119,0.0,2.0,76,0.00,,,0.00,,2013-01-25 22:42:00,
2013-01-25 17:53:00,16.0,10.0,30.10,ESE,119,0.0,1.0,76,0.00,,,0.00,,2013-01-25 22:53:00,
2013-01-25 18:02:00,15.0,9.0,30.10,ESE,119,0.0,1.0,77,0.00,,,0.00,,2013-01-25 23:02:00,
2013-01-25 18:12:00,15.0,9.0,30.10,ESE,119,0.0,1.0,77,0.00,,,0.00,,2013-01-25 23:12:00,
2013-01-25 18:22:00,15.0,9.0,30.10,ESE,119,0.0,1.0,77,0.00,,,0.00,,2013-01-25 23:22:00,
2013-01-25 18:32:00,15.0,9.0,30.10,ESE,119,0.0,1.0,78,0.00,,,0.00,,2013-01-25 23:32:00,
2013-01-25 18:42:00,15.0,9.0,30.10,ESE,119,0.0,1.0,78,0.00,,,0.00,,2013-01-25 23:42:00,
2013-01-25 18:53:00,15.0,9.0,30.10,ESE,119,0.0,1.0,78,0.00,,,0.00,,2013-01-25 23:53:00,
2013-01-25 19:02:00,15.0,9.0,30.10,ESE,119,0.0,1.0,78,0.00,,,0.00,,2013-01-26 00:02:00,
2013-01-25 19:11:00,15.0,9.0,30.10,ESE,119,0.0,1.0,78,0.00,,,0.00,,2013-01-26 00:11:00,
2013-01-25 19:22:00,15.0,12.0,30.10,ESE,119,0.0,0.0,86,0.00,,,0.00,,2013-01-26 00:22:00,
2013-01-25 19:32:00,15.0,12.0,30.10,ESE,119,0.0,1.0,87,0.00,,,0.00,,2013-01-26 00:32:00,
2013-01-25 19:42:00,15.0,12.0,30.10,ESE,119,0.0,1.0,87,0.00,,,0.00,,2013-01-26 00:42:00,
2013-01-25 19:53:00,15.0,12.0,30.09,ESE,119,0.0,1.0,87,0.00,,,0.00,,2013-01-26 00:53:00,
2013-01-25 20:02:00,15.0,12.0,30.10,ESE,119,0.0,0.0,87,0.00,,,0.00,,2013-01-26 01:02:00,
2013-01-25 20:11:00,15.0,12.0,30.10,ESE,119,0.0,0.0,87,0.00,,,0.00,,2013-01-26 01:11:00,
2013-01-25 20:22:00,14.0,11.0,30.10,ESE,119,0.0,0.0,87,0.00,,,0.00,,2013-01-26 01:22:00,
2013-01-25 20:32:00,14.0,11.0,30.10,ESE,119,0.0,0.0,88,0.00,,,0.00,,2013-01-26 01:32:00,
2013-01-25 20:42:00,14.0,11.0,30.10,ESE,119,0.0,0.0,88,0.00,,,0.00,,2013-01-26 01:42:00,
2013-01-25 20:52:00,14.0,11.0,30.10,ESE,119,0.0,0.0,89,0.00,,,0.00,,2013-01-26 01:52:00,
2013-01-25 21:01:00,14.0,11.0,30.09,ESE,119,0.0,1.0,88,0.00,,,0.00,,2013-01-26 02:01:00,
2013-01-25 21:11:00,14.0,11.0,30.09,ESE,119,0.0,1.0,88,0.00,,,0.00,,2013-01-26 02:11:00,
2013-01-25 21:22:00,14.0,11.0,30.10,ESE,119,0.0,0.0,88,0.00,,,0.00,,2013-01-26 02:22:00,
2013-01-25 21:32:00,14.0,11.0,30.09,ESE,119,0.0,0.0,89,0.00,,,0.00,,2013-01-26 02:32:00,
2013-01-25 21:42:00,14.0,11.0,30.09,ESE,119,0.0,0.0,89,0.00,,,0.00,,2013-01-26 02:42:00,
2013-01-25 21:52:00,14.0,11.0,30.09,ESE,119,0.0,0.0,89,0.00,,,0.00,,2013-01-26 02:52:00,
2013-01-25 22:02:00,13.0,10.0,30.09,ESE,119,0.0,1.0,89,0.00,,,0.00,,2013-01-26 03:02:00,
2013-01-25 22:11:00,13.0,10.0,30.09,ESE,119,0.0,1.0,89,0.00,,,0.00,,2013-01-26 03:11:00,
2013-01-25 22:22:00,13.0,10.0,30.10,ESE,119,0.0,0.0,89,0.00,,,0.00,,2013-01-26 03:22:00,
2013-01-25 22:32:00,12.0,9.0,30.10,ESE,119,0.0,1.0,89,0.00,,,0.00,,2013-01-26 03:32:00,
2013-01-25 22:43:00,12.0,9.0,30.10,ESE,119,0.0,1.0,89,0.00,,,0.00,,2013-01-26 03:43:00,
2013-01-25 22:52:00,12.0,9.0,30.10,ESE,119,0.0,0.0,89,0.00,,,0.00,,2013-01-26 03:52:00,
2013-01-25 23:02:00,12.0,10.0,30.09,ESE,119,0.0,0.0,90,0.00,,,0.00,,2013-01-26 04:02:00,
2013-01-25 23:12:00,12.0,10.0,30.09,ESE,119,0.0,0.0,90,0.00,,,0.00,,2013-01-26 04:12:00,
2013-01-25 23:21:00,11.0,8.0,30.09,ESE,119,0.0,0.0,89,0.00,,,0.00,,2013-01-26 04:21:00,
2013-01-25 23:32:00,11.0,8.0,30.10,ESE,119,0.0,1.0,89,0.00,,,0.00,,2013-01-26 04:32:00,
2013-01-25 23:42:00,11.0,8.0,30.10,ESE,119,0.0,1.0,89,0.00,,,0.00,,2013-01-26 04:42:00,
2013-01-25 23:52:00,12.0,10.0,30.10,ESE,119,0.0,1.0,90,0.00,,,0.00,,2013-01-26 04:52:00,